LFRI 221130Z AUTO 24011KT 9999 BKN024 12/08 Q1032 NOSIG

ElémentsDécodage
LFRI Station météo située sur l'aérodrome de LA-ROCHE-SUR-YON Les-Ajoncs
221130Z émis le 22 du mois à 11h30 UTC
AUTO Bulletin édité par un automate
24011KT vent du 240°, 11 noeuds
9999 visibilité horizontale supérieure à 10 Km
BKN024 nuages morcelés (5/8 à 7/8) à 2400 pieds
12/08 température 12°C, point de rosée 08°C
 soit une humidité relative de 77%
Q1032 la pression au niveau de la mer (QNH) est de 1032 hPa
NOSIG Pas de changement significatif prévu au cours des deux heures suivant l'heure de l'observation